createdAt,value
2019-02-25T00:00:54.460Z,48.90
2019-02-25T00:03:23.935Z,48.90
2019-02-25T00:05:53.306Z,49.00
2019-02-25T00:08:22.705Z,49.10
2019-02-25T00:10:54.398Z,49.00
2019-02-25T00:13:24.269Z,48.90
2019-02-25T00:15:53.627Z,48.90
2019-02-25T00:18:23.252Z,48.80
2019-02-25T00:20:53.122Z,48.70
2019-02-25T00:23:23.109Z,48.80
2019-02-25T00:25:52.447Z,49.10
2019-02-25T00:28:21.780Z,49.40
2019-02-25T00:30:51.152Z,49.50
2019-02-25T00:33:20.910Z,49.50
2019-02-25T00:35:50.324Z,49.50
2019-02-25T00:38:19.728Z,49.40
2019-02-25T00:40:49.115Z,49.50
2019-02-25T00:43:18.499Z,49.50
2019-02-25T00:45:47.951Z,49.50
2019-02-25T00:48:17.333Z,49.70
2019-02-25T00:50:46.715Z,49.80
2019-02-25T00:53:16.112Z,49.80
2019-02-25T00:55:45.486Z,49.90
2019-02-25T00:58:14.888Z,49.80
2019-02-25T01:00:44.280Z,50.10
2019-02-25T01:03:13.647Z,50.20
2019-02-25T01:05:43.048Z,50.30
2019-02-25T01:08:12.463Z,50.50
2019-02-25T01:10:41.855Z,50.60
2019-02-25T01:13:11.231Z,50.90
2019-02-25T01:15:40.604Z,51.30
2019-02-25T01:18:10.035Z,51.50
2019-02-25T01:20:39.447Z,51.40
2019-02-25T01:23:08.854Z,51.60
2019-02-25T01:25:38.256Z,51.80
2019-02-25T01:28:07.642Z,51.80
2019-02-25T01:30:37.058Z,51.80
2019-02-25T01:33:06.444Z,51.80
2019-02-25T01:35:35.968Z,51.90
2019-02-25T01:38:05.371Z,51.90
2019-02-25T01:40:34.789Z,51.90
2019-02-25T01:43:04.180Z,52.00
2019-02-25T01:45:33.539Z,52.20
2019-02-25T01:48:02.964Z,52.50
2019-02-25T01:50:32.340Z,52.80
2019-02-25T01:53:01.710Z,53.10
2019-02-25T01:55:31.107Z,53.20
2019-02-25T01:58:00.487Z,53.50
2019-02-25T02:00:30.223Z,53.70
2019-02-25T02:02:59.603Z,53.80
2019-02-25T02:05:28.992Z,54.00
2019-02-25T02:07:58.388Z,53.90
2019-02-25T02:10:27.756Z,53.80
2019-02-25T02:12:57.155Z,53.70
2019-02-25T02:15:26.532Z,53.70
2019-02-25T02:17:55.924Z,53.60
2019-02-25T02:20:25.311Z,53.60
2019-02-25T02:22:54.687Z,53.60
2019-02-25T02:25:24.083Z,53.60
2019-02-25T02:27:53.723Z,53.70
2019-02-25T02:30:23.128Z,53.70
2019-02-25T02:32:52.519Z,53.90
2019-02-25T02:35:21.901Z,54.10
2019-02-25T02:37:51.357Z,54.10
2019-02-25T02:40:20.752Z,54.00
2019-02-25T02:42:52.320Z,54.00
2019-02-25T02:45:42.533Z,53.80
2019-02-25T02:48:26.958Z,53.80
2019-02-25T02:50:56.339Z,53.60
2019-02-25T02:53:25.766Z,53.50
2019-02-25T02:55:55.170Z,53.40
2019-02-25T02:58:24.539Z,53.50
2019-02-25T03:00:53.946Z,53.50
2019-02-25T03:03:23.342Z,53.50
2019-02-25T03:05:52.733Z,53.50
2019-02-25T03:08:22.137Z,53.40
2019-02-25T03:10:51.505Z,53.10
2019-02-25T03:13:21.349Z,53.10
2019-02-25T03:15:50.739Z,53.10
2019-02-25T03:18:20.151Z,53.10
2019-02-25T03:20:49.537Z,53.00
2019-02-25T03:23:19.015Z,52.70
2019-02-25T03:25:48.408Z,52.60
2019-02-25T03:28:18.285Z,52.50
2019-02-25T03:30:47.716Z,52.60
2019-02-25T03:33:17.076Z,52.50
2019-02-25T03:35:46.446Z,52.40
2019-02-25T03:38:15.944Z,52.40
2019-02-25T03:40:45.416Z,52.40
2019-02-25T03:43:14.916Z,52.50
2019-02-25T03:45:44.351Z,52.50
2019-02-25T03:48:13.903Z,52.50
2019-02-25T03:50:43.374Z,52.50
2019-02-25T03:53:12.944Z,52.30
2019-02-25T03:55:42.527Z,52.30
2019-02-25T03:58:11.987Z,52.20
2019-02-25T04:00:41.368Z,52.30
2019-02-25T04:03:11.189Z,52.20
2019-02-25T04:05:40.711Z,52.30
2019-02-25T04:08:10.229Z,52.50
2019-02-25T04:10:39.575Z,52.70
2019-02-25T04:13:08.947Z,52.80
2019-02-25T04:15:41.339Z,52.80
2019-02-25T04:18:10.703Z,52.90
2019-02-25T04:20:40.103Z,52.90
2019-02-25T04:23:09.755Z,53.00
2019-02-25T04:25:39.158Z,52.90
2019-02-25T04:28:08.529Z,53.10
2019-02-25T04:30:37.916Z,53.10
2019-02-25T04:33:07.320Z,53.10
2019-02-25T04:35:36.695Z,53.20
2019-02-25T04:38:06.123Z,53.20
2019-02-25T04:40:35.425Z,53.30
2019-02-25T04:43:04.798Z,53.20
2019-02-25T04:45:34.196Z,53.00
2019-02-25T04:48:03.571Z,53.00
2019-02-25T04:50:32.963Z,52.90
2019-02-25T04:53:02.342Z,52.90
2019-02-25T04:55:31.742Z,52.90
2019-02-25T04:58:01.127Z,53.00
2019-02-25T05:00:30.514Z,53.00
2019-02-25T05:02:59.964Z,53.20
2019-02-25T05:05:29.275Z,53.40
2019-02-25T05:07:58.683Z,53.50
2019-02-25T05:10:28.068Z,53.60
2019-02-25T05:13:01.498Z,53.60
2019-02-25T05:15:31.207Z,53.70
2019-02-25T05:18:00.595Z,53.60
2019-02-25T05:20:29.963Z,53.50
2019-02-25T05:22:59.266Z,53.60
2019-02-25T05:25:28.666Z,53.60
2019-02-25T05:27:58.044Z,53.40
2019-02-25T05:30:27.433Z,53.40
2019-02-25T05:32:56.843Z,53.50
2019-02-25T05:35:26.213Z,53.60
2019-02-25T05:37:55.606Z,53.60
2019-02-25T05:40:25.032Z,53.80
2019-02-25T05:42:54.423Z,54.00
2019-02-25T05:45:23.836Z,54.10
2019-02-25T05:47:53.215Z,54.20
2019-02-25T05:50:23.004Z,54.70
2019-02-25T05:52:52.392Z,54.90
2019-02-25T05:55:21.774Z,55.00
2019-02-25T05:57:51.204Z,55.20
2019-02-25T06:00:22.822Z,55.10
2019-02-25T06:02:52.194Z,55.10
2019-02-25T06:05:22.826Z,55.20
2019-02-25T06:07:52.210Z,55.40
2019-02-25T06:10:21.654Z,55.30
2019-02-25T06:12:51.007Z,55.20
2019-02-25T06:15:20.718Z,54.80
2019-02-25T06:17:50.132Z,54.60
2019-02-25T06:20:19.514Z,54.50
2019-02-25T06:22:48.927Z,54.30
2019-02-25T06:25:18.430Z,54.00
2019-02-25T06:27:47.811Z,53.90
2019-02-25T06:30:17.803Z,53.70
2019-02-25T06:32:47.136Z,53.60
2019-02-25T06:35:16.659Z,53.40
2019-02-25T06:37:46.025Z,53.20
2019-02-25T06:40:16.200Z,53.00
2019-02-25T06:42:45.696Z,53.00
2019-02-25T06:45:16.560Z,52.90
2019-02-25T06:47:45.981Z,53.00
2019-02-25T06:50:15.450Z,53.10
2019-02-25T06:52:44.845Z,53.10
2019-02-25T06:55:15.027Z,53.00
2019-02-25T06:57:44.442Z,53.00
2019-02-25T07:00:15.807Z,52.90
2019-02-25T07:02:45.178Z,52.70
2019-02-25T07:05:36.666Z,52.60
2019-02-25T07:08:23.696Z,52.50
2019-02-25T07:11:04.423Z,52.30
2019-02-25T07:13:51.559Z,52.30
2019-02-25T07:16:38.231Z,52.30
2019-02-25T07:19:24.983Z,52.20
2019-02-25T07:22:19.456Z,51.90
2019-02-25T07:25:11.804Z,51.80
2019-02-25T07:27:58.530Z,51.90
2019-02-25T07:30:34.908Z,52.00
2019-02-25T07:33:16.244Z,52.10
2019-02-25T07:36:02.134Z,51.80
2019-02-25T07:38:59.716Z,51.60
2019-02-25T07:41:38.236Z,51.10
2019-02-25T07:44:21.323Z,51.00
2019-02-25T07:47:05.159Z,50.70
2019-02-25T07:49:56.265Z,50.50
2019-02-25T07:52:41.091Z,50.50
2019-02-25T07:55:24.987Z,51.00
2019-02-25T07:58:03.815Z,50.40
2019-02-25T08:00:41.186Z,50.30
2019-02-25T08:03:32.568Z,50.40
2019-02-25T08:06:12.549Z,50.50
2019-02-25T08:09:09.787Z,50.30
2019-02-25T08:12:07.147Z,50.20
2019-02-25T08:14:51.655Z,50.20
2019-02-25T08:17:54.876Z,50.00
2019-02-25T08:20:39.713Z,49.90
2019-02-25T08:23:40.211Z,49.90
2019-02-25T08:26:34.639Z,50.00
2019-02-25T08:29:37.887Z,50.00
2019-02-25T08:32:29.081Z,50.00
2019-02-25T08:35:12.781Z,50.10
2019-02-25T08:38:24.751Z,50.00
2019-02-25T08:41:32.144Z,49.90
2019-02-25T08:44:26.587Z,49.80
2019-02-25T08:47:04.695Z,49.80
2019-02-25T08:49:41.875Z,49.80
2019-02-25T08:52:11.255Z,49.80
2019-02-25T08:54:40.632Z,49.70
2019-02-25T08:57:10.034Z,49.50
2019-02-25T08:59:39.451Z,49.50
2019-02-25T09:02:08.855Z,49.50
2019-02-25T09:04:38.249Z,49.40
2019-02-25T09:07:07.984Z,49.10
2019-02-25T09:09:37.357Z,48.90
2019-02-25T09:12:06.843Z,49.00
2019-02-25T09:14:36.260Z,48.90
2019-02-25T09:17:05.632Z,48.80
2019-02-25T09:19:35.031Z,48.80
2019-02-25T09:22:04.396Z,48.70
2019-02-25T09:24:33.799Z,48.50
2019-02-25T09:27:03.204Z,48.40
2019-02-25T09:29:32.647Z,48.20
2019-02-25T09:32:02.030Z,48.00
2019-02-25T09:34:31.407Z,47.90
2019-02-25T09:37:00.792Z,47.60
2019-02-25T09:39:30.182Z,47.40
2019-02-25T09:41:59.622Z,47.20
2019-02-25T09:44:28.988Z,47.00
2019-02-25T09:46:58.428Z,46.90
2019-02-25T09:49:27.771Z,46.80
2019-02-25T09:51:57.272Z,46.70
2019-02-25T09:54:26.651Z,46.40
2019-02-25T09:56:56.033Z,46.20
2019-02-25T09:59:25.448Z,46.00
2019-02-25T10:01:54.815Z,45.60
2019-02-25T10:04:24.221Z,45.00
2019-02-25T10:07:01.997Z,44.60
2019-02-25T10:09:29.888Z,44.60
2019-02-25T10:11:55.671Z,44.50
2019-02-25T10:14:25.176Z,43.80
2019-02-25T10:16:54.547Z,43.40
2019-02-25T10:19:23.931Z,42.90
2019-02-25T10:21:53.391Z,42.40
2019-02-25T10:24:22.692Z,42.30
2019-02-25T10:26:52.099Z,42.10
2019-02-25T10:29:21.528Z,42.20
2019-02-25T10:31:50.908Z,42.10
2019-02-25T10:34:20.279Z,41.80
2019-02-25T10:36:50.357Z,42.00
2019-02-25T10:39:20.707Z,42.20
2019-02-25T10:41:51.221Z,42.30
2019-02-25T10:44:21.137Z,42.00
2019-02-25T10:46:50.531Z,41.70
2019-02-25T10:49:19.919Z,41.60
2019-02-25T10:51:49.305Z,41.50
2019-02-25T10:54:19.581Z,41.20
2019-02-25T10:56:54.102Z,41.00
2019-02-25T10:59:24.036Z,40.90
2019-02-25T11:01:53.407Z,40.90
2019-02-25T11:04:23.813Z,41.20
2019-02-25T11:06:53.844Z,41.20
2019-02-25T11:09:42.035Z,41.10
2019-02-25T11:12:11.555Z,41.10
2019-02-25T11:14:42.901Z,41.10
2019-02-25T11:17:13.773Z,41.20
2019-02-25T11:19:43.039Z,41.50
2019-02-25T11:22:14.113Z,41.50
2019-02-25T11:24:43.436Z,41.50
2019-02-25T11:27:12.863Z,41.50
2019-02-25T11:29:44.027Z,41.40
2019-02-25T11:32:13.307Z,41.70
2019-02-25T11:34:42.669Z,41.70
2019-02-25T11:37:12.084Z,41.60
2019-02-25T11:39:41.475Z,41.60
2019-02-25T11:42:12.869Z,41.70
2019-02-25T11:44:42.019Z,41.80
2019-02-25T11:47:11.400Z,41.80
2019-02-25T11:49:40.811Z,42.00
2019-02-25T11:52:10.198Z,42.20
2019-02-25T11:54:39.631Z,42.30
2019-02-25T11:57:09.028Z,42.50
2019-02-25T11:59:38.407Z,43.40
2019-02-25T12:02:07.815Z,43.00
2019-02-25T12:04:37.187Z,42.90
2019-02-25T12:07:06.836Z,43.00
2019-02-25T12:09:36.211Z,42.80
2019-02-25T12:12:05.632Z,42.90
2019-02-25T12:14:35.009Z,42.80
2019-02-25T12:17:04.396Z,42.80
2019-02-25T12:19:33.792Z,42.70
2019-02-25T12:22:03.174Z,42.90
2019-02-25T12:24:32.579Z,43.00
2019-02-25T12:27:01.960Z,43.00
2019-02-25T12:29:31.424Z,43.00
2019-02-25T12:32:00.769Z,42.90
2019-02-25T12:34:30.138Z,42.90
2019-02-25T12:36:59.550Z,42.90
2019-02-25T12:39:28.913Z,43.00
2019-02-25T12:41:58.318Z,43.10
2019-02-25T12:44:27.806Z,43.40
2019-02-25T12:46:57.364Z,43.40
2019-02-25T12:49:26.743Z,43.40
2019-02-25T12:51:56.118Z,43.30
2019-02-25T12:54:25.544Z,43.30
2019-02-25T12:56:54.913Z,43.50
2019-02-25T12:59:24.322Z,43.70
2019-02-25T13:01:53.708Z,43.70
2019-02-25T13:04:23.136Z,43.90
2019-02-25T13:06:52.521Z,43.90
2019-02-25T13:09:21.903Z,44.00
2019-02-25T13:11:51.321Z,44.00
2019-02-25T13:14:20.721Z,44.30
2019-02-25T13:16:50.147Z,44.50
2019-02-25T13:19:19.525Z,44.50
2019-02-25T13:21:48.959Z,44.60
2019-02-25T13:24:18.344Z,44.70
2019-02-25T13:26:47.737Z,44.90
2019-02-25T13:29:17.135Z,45.10
2019-02-25T13:31:46.523Z,45.40
2019-02-25T13:34:15.967Z,45.50
2019-02-25T13:36:45.332Z,45.60
2019-02-25T13:39:14.740Z,45.70
2019-02-25T13:41:44.220Z,45.70
2019-02-25T13:44:13.615Z,45.80
2019-02-25T13:46:43.082Z,46.00
2019-02-25T13:49:12.469Z,46.00
2019-02-25T13:51:41.888Z,46.10
2019-02-25T13:54:11.264Z,46.20
2019-02-25T13:56:40.688Z,46.30
2019-02-25T13:59:10.267Z,46.40
2019-02-25T14:01:39.672Z,46.80
2019-02-25T14:04:09.088Z,46.70
2019-02-25T14:06:38.464Z,46.60
2019-02-25T14:09:09.579Z,46.60
2019-02-25T14:11:38.976Z,46.60
2019-02-25T14:14:08.395Z,46.80
2019-02-25T14:16:37.776Z,46.90
2019-02-25T14:19:07.164Z,46.90
2019-02-25T14:21:36.654Z,46.90
2019-02-25T14:24:06.083Z,46.90
2019-02-25T14:26:37.440Z,46.90
2019-02-25T14:29:06.971Z,46.90
2019-02-25T14:31:36.480Z,46.70
2019-02-25T14:34:05.873Z,46.60
2019-02-25T14:36:35.435Z,46.50
2019-02-25T14:39:17.611Z,47.00
2019-02-25T14:41:47.027Z,46.50
2019-02-25T14:44:16.526Z,46.60
2019-02-25T14:46:45.955Z,46.70
2019-02-25T14:49:15.366Z,46.60
2019-02-25T14:51:45.082Z,46.90
2019-02-25T14:54:14.685Z,47.10
2019-02-25T14:56:45.036Z,47.20
2019-02-25T14:59:17.291Z,47.20
2019-02-25T15:01:46.146Z,47.50
2019-02-25T15:04:15.887Z,47.70
2019-02-25T15:06:45.255Z,47.80
2019-02-25T15:09:16.244Z,47.90
2019-02-25T15:11:45.740Z,48.00
2019-02-25T15:14:16.750Z,48.10
2019-02-25T15:16:46.167Z,48.30
2019-02-25T15:19:15.564Z,48.40
2019-02-25T15:21:47.382Z,48.60
2019-02-25T15:24:16.190Z,48.80
2019-02-25T15:26:45.574Z,49.00
2019-02-25T15:29:14.978Z,49.00
2019-02-25T15:31:46.198Z,49.10
2019-02-25T15:34:17.206Z,49.10
2019-02-25T15:36:47.220Z,49.00
2019-02-25T15:39:16.764Z,49.00
2019-02-25T15:41:48.190Z,49.10
2019-02-25T15:44:17.191Z,49.10
2019-02-25T15:46:46.641Z,49.70
2019-02-25T15:49:17.354Z,49.20
2019-02-25T15:51:47.059Z,49.20
2019-02-25T15:54:16.432Z,49.10
2019-02-25T15:56:45.823Z,49.00
2019-02-25T15:59:15.203Z,49.10
2019-02-25T16:01:45.135Z,49.10
2019-02-25T16:04:14.516Z,49.20
2019-02-25T16:06:43.897Z,49.20
2019-02-25T16:09:17.088Z,49.20
2019-02-25T16:11:46.003Z,49.40
2019-02-25T16:14:16.525Z,49.70
2019-02-25T16:16:46.015Z,49.90
2019-02-25T16:19:16.995Z,50.20
2019-02-25T16:21:46.499Z,50.50
2019-02-25T16:24:16.860Z,50.70
2019-02-25T16:26:48.685Z,50.90
2019-02-25T16:29:18.001Z,51.10
2019-02-25T16:31:48.536Z,51.30
2019-02-25T16:34:20.542Z,51.50
2019-02-25T16:36:51.998Z,51.80
2019-02-25T16:39:20.759Z,52.00
2019-02-25T16:41:52.427Z,52.30
2019-02-25T16:44:21.878Z,52.50
2019-02-25T16:46:51.329Z,52.80
2019-02-25T16:49:20.740Z,53.20
2019-02-25T16:51:51.037Z,53.50
2019-02-25T16:54:22.855Z,53.90
2019-02-25T16:56:52.563Z,54.10
2019-02-25T16:59:23.027Z,54.40
2019-02-25T17:01:55.821Z,54.60
2019-02-25T17:04:25.512Z,54.90
2019-02-25T17:06:55.699Z,55.20
2019-02-25T17:09:28.868Z,55.40
2019-02-25T17:12:00.113Z,55.50
2019-02-25T17:14:29.796Z,55.80
2019-02-25T17:16:59.188Z,56.20
2019-02-25T17:19:28.589Z,56.40
2019-02-25T17:21:58.003Z,56.60
2019-02-25T17:24:28.071Z,56.90
2019-02-25T17:27:00.070Z,57.10
2019-02-25T17:29:31.245Z,57.20
2019-02-25T17:32:01.916Z,57.40
2019-02-25T17:34:32.285Z,57.60
2019-02-25T17:37:02.418Z,57.70
2019-02-25T17:39:33.797Z,57.70
2019-02-25T17:42:03.529Z,58.30
2019-02-25T17:44:34.846Z,57.80
2019-02-25T17:47:06.624Z,57.80
2019-02-25T17:49:36.588Z,57.90
2019-02-25T17:52:07.148Z,58.00
2019-02-25T17:54:37.749Z,58.20
2019-02-25T17:57:09.287Z,58.30
2019-02-25T17:59:39.285Z,58.50
2019-02-25T18:02:10.078Z,58.50
2019-02-25T18:04:39.785Z,58.70
2019-02-25T18:07:09.188Z,58.90
2019-02-25T18:09:40.144Z,59.00
2019-02-25T18:12:10.759Z,59.30
2019-02-25T18:14:41.511Z,59.60
2019-02-25T18:17:14.843Z,59.70
2019-02-25T18:19:45.483Z,59.90
2019-02-25T18:22:13.744Z,60.20
2019-02-25T18:24:44.453Z,60.60
2019-02-25T18:27:15.695Z,60.90
2019-02-25T18:29:46.245Z,61.10
2019-02-25T18:32:16.409Z,61.40
2019-02-25T18:34:46.009Z,61.70
2019-02-25T18:37:17.570Z,62.10
2019-02-25T18:39:47.931Z,62.40
2019-02-25T18:42:18.500Z,62.70
2019-02-25T18:44:49.488Z,63.00
2019-02-25T18:47:22.863Z,63.20
2019-02-25T18:49:52.672Z,63.50
2019-02-25T18:52:23.535Z,63.70
2019-02-25T18:54:52.931Z,63.90
2019-02-25T18:57:25.173Z,64.30
2019-02-25T18:59:54.759Z,64.50
2019-02-25T19:02:24.729Z,64.70
2019-02-25T19:04:54.411Z,65.00
2019-02-25T19:07:25.627Z,65.30
2019-02-25T19:09:56.057Z,65.60
2019-02-25T19:12:25.988Z,65.60
2019-02-25T19:14:57.273Z,65.80
2019-02-25T19:17:27.267Z,66.00
2019-02-25T19:19:57.559Z,66.30
2019-02-25T19:22:28.047Z,66.30
2019-02-25T19:24:57.507Z,66.30
2019-02-25T19:27:27.794Z,66.30
2019-02-25T19:30:00.229Z,66.20
2019-02-25T19:32:29.344Z,66.20
2019-02-25T19:34:59.249Z,66.30
2019-02-25T19:37:32.954Z,66.40
2019-02-25T19:40:00.856Z,66.60
2019-02-25T19:42:31.261Z,66.70
2019-02-25T19:45:05.320Z,66.90
2019-02-25T19:47:33.066Z,67.10
2019-02-25T19:50:05.214Z,67.10
2019-02-25T19:52:34.882Z,67.20
2019-02-25T19:55:07.964Z,67.30
2019-02-25T19:57:36.838Z,67.50
2019-02-25T20:00:08.253Z,67.70
2019-02-25T20:02:37.771Z,67.80
2019-02-25T20:05:11.510Z,67.90
2019-02-25T20:07:38.628Z,68.00
2019-02-25T20:10:08.906Z,68.20
2019-02-25T20:12:38.273Z,68.20
2019-02-25T20:15:11.319Z,68.40
2019-02-25T20:17:41.343Z,68.50
2019-02-25T20:20:12.687Z,68.70
2019-02-25T20:22:42.151Z,68.90
2019-02-25T20:25:12.595Z,68.90
2019-02-25T20:27:42.948Z,69.10
2019-02-25T20:30:14.252Z,69.20
2019-02-25T20:32:43.643Z,69.40
2019-02-25T20:35:15.724Z,69.60
2019-02-25T20:37:46.398Z,69.80
2019-02-25T20:40:19.145Z,69.90
2019-02-25T20:42:50.959Z,70.10
2019-02-25T20:45:23.011Z,70.10
2019-02-25T20:47:52.330Z,70.20
2019-02-25T20:50:22.562Z,70.40
2019-02-25T20:52:51.947Z,70.40
2019-02-25T20:55:21.349Z,70.60
2019-02-25T20:57:50.723Z,70.70
2019-02-25T21:00:20.447Z,70.80
2019-02-25T21:02:49.944Z,71.60
2019-02-25T21:05:22.117Z,70.90
2019-02-25T21:07:52.677Z,70.90
2019-02-25T21:10:22.793Z,71.10
2019-02-25T21:12:54.568Z,71.20
2019-02-25T21:15:23.483Z,71.30
2019-02-25T21:17:55.053Z,71.30
2019-02-25T21:20:26.214Z,71.40
2019-02-25T21:22:57.675Z,71.50
2019-02-25T21:25:26.849Z,71.60
2019-02-25T21:27:59.253Z,71.70
2019-02-25T21:30:28.095Z,71.90
2019-02-25T21:32:58.960Z,72.00
2019-02-25T21:35:30.196Z,72.10
2019-02-25T21:37:59.411Z,72.20
2019-02-25T21:40:30.143Z,72.40
2019-02-25T21:42:59.844Z,72.50
2019-02-25T21:45:32.091Z,72.50
2019-02-25T21:48:01.865Z,72.60
2019-02-25T21:50:33.540Z,72.60
2019-02-25T21:53:04.917Z,72.60
2019-02-25T21:55:34.962Z,72.70
2019-02-25T21:58:05.010Z,72.90
2019-02-25T22:00:35.755Z,73.00
2019-02-25T22:03:08.257Z,73.00
2019-02-25T22:05:36.506Z,73.10
2019-02-25T22:08:06.535Z,73.30
2019-02-25T22:10:37.582Z,73.50
2019-02-25T22:13:09.063Z,73.50
2019-02-25T22:15:39.033Z,73.50
2019-02-25T22:18:11.406Z,73.30
2019-02-25T22:20:42.251Z,73.10
2019-02-25T22:23:11.256Z,73.00
2019-02-25T22:25:40.652Z,73.10
2019-02-25T22:28:10.105Z,73.20
2019-02-25T22:30:39.455Z,73.40
2019-02-25T22:33:23.181Z,73.50
2019-02-25T22:35:40.631Z,73.50
2019-02-25T22:38:10.941Z,73.60
2019-02-25T22:40:40.355Z,73.60
2019-02-25T22:43:10.528Z,73.70
2019-02-25T22:45:42.037Z,73.70
2019-02-25T22:48:13.571Z,73.90
2019-02-25T22:50:42.589Z,73.90
2019-02-25T22:53:12.006Z,74.20
2019-02-25T22:55:42.668Z,74.30
2019-02-25T22:58:13.350Z,74.30
2019-02-25T23:00:46.582Z,74.40
2019-02-25T23:03:17.911Z,74.40
2019-02-25T23:05:48.682Z,74.50
2019-02-25T23:08:20.737Z,74.60
2019-02-25T23:10:49.831Z,74.70
2019-02-25T23:13:22.488Z,74.70
2019-02-25T23:15:51.724Z,74.70
2019-02-25T23:18:25.087Z,74.70
2019-02-25T23:20:57.018Z,74.80
2019-02-25T23:23:26.440Z,74.70
2019-02-25T23:25:56.652Z,74.70
2019-02-25T23:28:28.599Z,74.70
2019-02-25T23:30:57.670Z,74.80
2019-02-25T23:33:27.043Z,74.80
2019-02-25T23:35:56.467Z,74.80
2019-02-25T23:38:25.859Z,75.00
2019-02-25T23:40:55.239Z,75.10
2019-02-25T23:43:24.646Z,75.10
2019-02-25T23:45:54.033Z,75.20
2019-02-25T23:48:26.409Z,75.20
2019-02-25T23:50:55.437Z,75.20
2019-02-25T23:53:26.672Z,75.20
2019-02-25T23:55:58.669Z,75.30
2019-02-25T23:58:27.880Z,76.00
